createdAt,value
2019-04-29T00:00:25.601Z,625.80
2019-04-29T00:01:01.207Z,630.50
2019-04-29T00:01:36.308Z,630.70
2019-04-29T00:02:11.635Z,643.80
2019-04-29T00:02:47.195Z,617.00
2019-04-29T00:03:22.394Z,611.50
2019-04-29T00:03:57.675Z,605.50
2019-04-29T00:04:32.894Z,621.70
2019-04-29T00:05:08.378Z,627.40
2019-04-29T00:05:43.862Z,629.00
2019-04-29T00:06:19.242Z,634.40
2019-04-29T00:06:54.589Z,620.10
2019-04-29T00:07:29.771Z,613.80
2019-04-29T00:08:05.083Z,620.90
2019-04-29T00:08:40.347Z,631.40
2019-04-29T00:09:16.044Z,635.80
2019-04-29T00:09:51.718Z,599.50
2019-04-29T00:10:27.030Z,581.50
2019-04-29T00:11:02.314Z,618.20
2019-04-29T00:11:37.644Z,629.30
2019-04-29T00:12:13.329Z,636.40
2019-04-29T00:12:48.756Z,612.50
2019-04-29T00:13:24.232Z,625.20
2019-04-29T00:13:59.536Z,632.00
2019-04-29T00:14:34.897Z,608.10
2019-04-29T00:15:10.315Z,590.80
2019-04-29T00:15:45.492Z,620.00
2019-04-29T00:16:20.958Z,617.50
2019-04-29T00:16:56.556Z,621.30
2019-04-29T00:17:32.067Z,629.50
2019-04-29T00:18:07.333Z,626.30
2019-04-29T00:18:42.551Z,617.50
2019-04-29T00:19:18.005Z,618.80
2019-04-29T00:19:53.334Z,629.70
2019-04-29T00:20:28.732Z,622.40
2019-04-29T00:21:04.329Z,599.30
2019-04-29T00:21:39.517Z,615.70
2019-04-29T00:22:14.948Z,625.10
2019-04-29T00:22:50.318Z,629.40
2019-04-29T00:23:25.611Z,630.10
2019-04-29T00:24:03.954Z,644.30
2019-04-29T00:24:36.135Z,605.00
2019-04-29T00:25:11.304Z,587.80
2019-04-29T00:25:46.800Z,617.00
2019-04-29T00:26:22.162Z,596.40
2019-04-29T00:26:57.283Z,609.70
2019-04-29T00:27:32.650Z,623.20
2019-04-29T00:28:08.050Z,615.90
2019-04-29T00:28:43.405Z,610.20
2019-04-29T00:29:18.817Z,608.80
2019-04-29T00:29:53.893Z,621.30
2019-04-29T00:30:29.088Z,622.90
2019-04-29T00:31:04.255Z,607.30
2019-04-29T00:31:39.795Z,612.30
2019-04-29T00:32:15.159Z,613.70
2019-04-29T00:32:50.464Z,597.60
2019-04-29T00:33:25.629Z,607.80
2019-04-29T00:34:01.141Z,611.50
2019-04-29T00:34:36.302Z,616.00
2019-04-29T00:35:11.635Z,617.00
2019-04-29T00:35:46.991Z,619.80
2019-04-29T00:36:22.417Z,618.80
2019-04-29T00:36:57.423Z,615.90
2019-04-29T00:37:32.524Z,600.90
2019-04-29T00:38:07.791Z,600.50
2019-04-29T00:38:43.178Z,614.70
2019-04-29T00:39:18.453Z,612.10
2019-04-29T00:39:53.848Z,613.80
2019-04-29T00:40:28.925Z,607.50
2019-04-29T00:41:04.043Z,611.70
2019-04-29T00:41:39.544Z,591.50
2019-04-29T00:42:14.864Z,597.50
2019-04-29T00:42:50.218Z,608.30
2019-04-29T00:43:25.630Z,606.40
2019-04-29T00:44:01.171Z,606.00
2019-04-29T00:44:36.589Z,607.00
2019-04-29T00:45:11.886Z,616.10
2019-04-29T00:45:47.102Z,626.50
2019-04-29T00:46:22.197Z,584.00
2019-04-29T00:46:57.314Z,597.90
2019-04-29T00:47:32.686Z,608.80
2019-04-29T00:48:08.089Z,615.40
2019-04-29T00:48:43.279Z,584.80
2019-04-29T00:49:18.587Z,583.80
2019-04-29T00:49:53.755Z,604.40
2019-04-29T00:50:28.956Z,618.40
2019-04-29T00:51:04.323Z,616.80
2019-04-29T00:51:39.562Z,610.50
2019-04-29T00:52:14.853Z,607.70
2019-04-29T00:52:50.066Z,601.20
2019-04-29T00:53:25.135Z,604.90
2019-04-29T00:54:00.294Z,607.00
2019-04-29T00:54:35.699Z,605.60
2019-04-29T00:55:10.911Z,604.10
2019-04-29T00:55:45.998Z,603.40
2019-04-29T00:56:21.197Z,603.60
2019-04-29T00:56:56.390Z,584.80
2019-04-29T00:57:31.823Z,608.60
2019-04-29T00:58:07.098Z,574.70
2019-04-29T00:58:42.524Z,579.50
2019-04-29T00:59:17.804Z,613.00
2019-04-29T00:59:53.011Z,619.50
2019-04-29T01:00:28.280Z,617.30
2019-04-29T01:01:03.527Z,604.30
2019-04-29T01:01:38.737Z,607.10
2019-04-29T01:02:14.444Z,617.50
2019-04-29T01:02:49.718Z,624.80
2019-04-29T01:03:25.015Z,621.10
2019-04-29T01:04:00.583Z,610.70
2019-04-29T01:04:35.824Z,574.30
2019-04-29T01:05:11.314Z,578.80
2019-04-29T01:05:46.839Z,598.50
2019-04-29T01:06:22.122Z,616.60
2019-04-29T01:06:57.567Z,615.80
2019-04-29T01:07:32.837Z,605.30
2019-04-29T01:08:08.057Z,608.50
2019-04-29T01:08:43.216Z,609.10
2019-04-29T01:09:18.616Z,613.00
2019-04-29T01:09:54.205Z,613.10
2019-04-29T01:10:29.612Z,615.90
2019-04-29T01:11:05.095Z,579.20
2019-04-29T01:11:40.526Z,581.20
2019-04-29T01:12:15.826Z,601.10
2019-04-29T01:12:51.123Z,596.70
2019-04-29T01:13:26.803Z,612.70
2019-04-29T01:14:02.307Z,610.10
2019-04-29T01:14:37.680Z,609.70
2019-04-29T01:15:12.987Z,595.20
2019-04-29T01:15:48.347Z,569.30
2019-04-29T01:16:23.552Z,597.50
2019-04-29T01:16:59.136Z,577.20
2019-04-29T01:17:34.364Z,573.20
2019-04-29T01:18:09.939Z,557.50
2019-04-29T01:18:45.237Z,575.50
2019-04-29T01:19:20.631Z,586.90
2019-04-29T01:19:55.939Z,585.30
2019-04-29T01:20:31.212Z,601.60
2019-04-29T01:21:06.609Z,602.00
2019-04-29T01:21:41.816Z,596.70
2019-04-29T01:22:17.008Z,604.50
2019-04-29T01:22:52.372Z,603.20
2019-04-29T01:23:27.471Z,611.50
2019-04-29T01:24:02.833Z,610.40
2019-04-29T01:24:38.235Z,605.50
2019-04-29T01:25:13.412Z,592.10
2019-04-29T01:25:48.822Z,560.20
2019-04-29T01:26:24.139Z,591.60
2019-04-29T01:26:59.641Z,606.20
2019-04-29T01:27:35.213Z,602.20
2019-04-29T01:28:10.609Z,591.10
2019-04-29T01:28:45.579Z,592.50
2019-04-29T01:29:21.082Z,599.20
2019-04-29T01:29:56.366Z,581.70
2019-04-29T01:30:31.987Z,594.80
2019-04-29T01:31:07.354Z,605.10
2019-04-29T01:31:42.691Z,600.20
2019-04-29T01:32:18.390Z,593.20
2019-04-29T01:32:53.920Z,598.40
2019-04-29T01:33:29.298Z,582.50
2019-04-29T01:34:04.599Z,559.50
2019-04-29T01:34:40.082Z,564.50
2019-04-29T01:35:15.284Z,563.50
2019-04-29T01:35:50.664Z,548.10
2019-04-29T01:36:25.754Z,565.00
2019-04-29T01:37:01.144Z,596.90
2019-04-29T01:37:36.466Z,609.40
2019-04-29T01:38:11.736Z,610.40
2019-04-29T01:38:48.687Z,605.00
2019-04-29T01:39:22.432Z,579.00
2019-04-29T01:39:57.823Z,544.80
2019-04-29T01:40:32.806Z,549.80
2019-04-29T01:41:08.025Z,569.70
2019-04-29T01:41:43.432Z,601.40
2019-04-29T01:42:18.747Z,578.50
2019-04-29T01:42:57.048Z,565.30
2019-04-29T01:43:32.642Z,587.30
2019-04-29T01:44:07.713Z,577.00
2019-04-29T01:44:43.010Z,602.20
2019-04-29T01:45:18.796Z,598.60
2019-04-29T01:45:53.998Z,602.50
2019-04-29T01:46:29.268Z,574.00
2019-04-29T01:47:04.591Z,577.20
2019-04-29T01:47:39.850Z,589.40
2019-04-29T01:48:15.363Z,563.60
2019-04-29T01:48:50.859Z,591.50
2019-04-29T01:49:26.311Z,571.30
2019-04-29T01:50:01.677Z,558.40
2019-04-29T01:50:36.894Z,581.50
2019-04-29T01:51:12.276Z,604.30
2019-04-29T01:51:47.799Z,600.10
2019-04-29T01:52:23.466Z,591.70
2019-04-29T01:52:59.161Z,593.30
2019-04-29T01:53:34.425Z,583.40
2019-04-29T01:54:09.526Z,587.70
2019-04-29T01:54:44.808Z,593.70
2019-04-29T01:55:20.012Z,597.10
2019-04-29T01:55:55.389Z,580.40
2019-04-29T01:56:30.989Z,576.80
2019-04-29T01:57:06.378Z,581.70
2019-04-29T01:57:41.777Z,583.90
2019-04-29T01:58:16.887Z,587.50
2019-04-29T01:58:52.288Z,592.20
2019-04-29T01:59:27.544Z,588.80
2019-04-29T02:00:02.959Z,578.40
2019-04-29T02:00:38.024Z,546.80
2019-04-29T02:01:13.351Z,549.20
2019-04-29T02:01:48.535Z,581.50
2019-04-29T02:02:23.741Z,581.70
2019-04-29T02:02:59.132Z,538.70
2019-04-29T02:03:34.844Z,550.10
2019-04-29T02:04:10.112Z,569.10
2019-04-29T02:04:45.436Z,565.90
2019-04-29T02:05:20.797Z,563.20
2019-04-29T02:05:56.079Z,545.70
2019-04-29T02:06:31.635Z,544.60
2019-04-29T02:07:07.094Z,546.40
2019-04-29T02:07:42.665Z,574.40
2019-04-29T02:08:18.079Z,576.80
2019-04-29T02:08:53.250Z,573.40
2019-04-29T02:09:28.859Z,570.10
2019-04-29T02:10:04.434Z,575.20
2019-04-29T02:10:39.730Z,570.50
2019-04-29T02:11:15.085Z,567.00
2019-04-29T02:11:50.303Z,582.40
2019-04-29T02:12:25.886Z,582.60
2019-04-29T02:13:01.298Z,569.10
2019-04-29T02:13:36.486Z,562.40
2019-04-29T02:14:12.098Z,568.80
2019-04-29T02:14:47.055Z,561.10
2019-04-29T02:15:22.675Z,571.70
2019-04-29T02:15:58.048Z,583.50
2019-04-29T02:16:33.468Z,581.00
2019-04-29T02:17:08.879Z,567.20
2019-04-29T02:17:44.165Z,565.70
2019-04-29T02:18:19.553Z,567.90
2019-04-29T02:18:54.726Z,569.50
2019-04-29T02:19:29.982Z,573.00
2019-04-29T02:20:05.186Z,559.00
2019-04-29T02:20:40.266Z,561.60
2019-04-29T02:21:15.371Z,564.40
2019-04-29T02:21:50.573Z,572.70
2019-04-29T02:22:25.904Z,580.20
2019-04-29T02:23:01.182Z,567.70
2019-04-29T02:23:36.491Z,560.90
2019-04-29T02:24:11.758Z,568.60
2019-04-29T02:24:47.166Z,577.80
2019-04-29T02:25:22.258Z,576.00
2019-04-29T02:25:57.456Z,571.00
2019-04-29T02:26:32.820Z,556.50
2019-04-29T02:27:07.985Z,551.60
2019-04-29T02:27:43.108Z,558.90
2019-04-29T02:28:18.414Z,558.20
2019-04-29T02:28:53.484Z,533.60
2019-04-29T02:29:28.899Z,541.70
2019-04-29T02:30:04.170Z,572.50
2019-04-29T02:30:39.671Z,573.70
2019-04-29T02:31:14.896Z,564.80
2019-04-29T02:31:50.634Z,550.30
2019-04-29T02:32:25.903Z,529.90
2019-04-29T02:33:01.109Z,542.70
2019-04-29T02:33:36.675Z,566.80
2019-04-29T02:34:12.178Z,568.70
2019-04-29T02:34:47.381Z,558.70
2019-04-29T02:35:22.681Z,555.80
2019-04-29T02:35:57.744Z,552.00
2019-04-29T02:36:32.849Z,530.00
2019-04-29T02:37:08.538Z,536.50
2019-04-29T02:37:43.756Z,547.10
2019-04-29T02:38:19.138Z,559.80
2019-04-29T02:38:54.524Z,525.20
2019-04-29T02:39:29.799Z,545.60
2019-04-29T02:40:04.994Z,560.10
2019-04-29T02:40:40.464Z,558.60
2019-04-29T02:41:15.759Z,552.80
2019-04-29T02:41:51.069Z,545.10
2019-04-29T02:42:26.262Z,541.30
2019-04-29T02:43:01.737Z,546.80
2019-04-29T02:43:37.027Z,562.80
2019-04-29T02:44:12.393Z,560.40
2019-04-29T02:44:47.689Z,552.50
2019-04-29T02:45:23.254Z,529.90
2019-04-29T02:45:58.575Z,532.60
2019-04-29T02:46:33.638Z,551.90
2019-04-29T02:47:09.065Z,543.20
2019-04-29T02:47:44.232Z,536.40
2019-04-29T02:48:19.347Z,547.50
2019-04-29T02:48:54.839Z,540.10
2019-04-29T02:49:30.343Z,541.70
2019-04-29T02:50:05.422Z,546.40
2019-04-29T02:50:40.820Z,539.50
2019-04-29T02:51:16.085Z,543.10
2019-04-29T02:51:51.332Z,543.70
2019-04-29T02:52:26.408Z,546.00
2019-04-29T02:53:01.621Z,549.20
2019-04-29T02:53:36.885Z,541.10
2019-04-29T02:54:12.394Z,536.00
2019-04-29T02:54:47.851Z,535.20
2019-04-29T02:55:23.277Z,536.60
2019-04-29T02:55:58.343Z,549.50
2019-04-29T02:56:33.757Z,545.50
2019-04-29T02:57:09.250Z,539.10
2019-04-29T02:57:44.566Z,538.80
2019-04-29T02:58:20.047Z,535.70
2019-04-29T02:58:55.340Z,543.10
2019-04-29T02:59:30.815Z,546.60
2019-04-29T03:00:06.032Z,549.40
2019-04-29T03:00:41.102Z,543.70
2019-04-29T03:01:16.319Z,533.60
2019-04-29T03:01:52.012Z,531.20
2019-04-29T03:02:27.105Z,536.20
2019-04-29T03:03:02.392Z,545.60
2019-04-29T03:03:37.820Z,540.70
2019-04-29T03:04:13.300Z,534.20
2019-04-29T03:04:48.620Z,539.00
2019-04-29T03:05:23.883Z,547.40
2019-04-29T03:05:59.181Z,550.60
2019-04-29T03:06:34.310Z,551.10
2019-04-29T03:07:09.517Z,538.90
2019-04-29T03:07:45.094Z,535.20
2019-04-29T03:08:20.494Z,538.60
2019-04-29T03:08:55.763Z,541.10
2019-04-29T03:09:31.385Z,544.70
2019-04-29T03:10:06.655Z,539.90
2019-04-29T03:10:41.976Z,531.50
2019-04-29T03:11:17.149Z,532.80
2019-04-29T03:11:52.382Z,536.00
2019-04-29T03:12:27.658Z,538.10
2019-04-29T03:13:03.068Z,540.50
2019-04-29T03:13:38.449Z,534.00
2019-04-29T03:14:13.767Z,531.50
2019-04-29T03:14:48.843Z,531.00
2019-04-29T03:15:24.155Z,541.50
2019-04-29T03:15:59.551Z,553.30
2019-04-29T03:16:34.769Z,516.80
2019-04-29T03:17:10.131Z,512.10
2019-04-29T03:17:45.538Z,524.20
2019-04-29T03:18:20.604Z,534.70
2019-04-29T03:18:56.005Z,527.40
2019-04-29T03:19:31.199Z,521.70
2019-04-29T03:20:06.494Z,512.60
2019-04-29T03:20:41.961Z,509.90
2019-04-29T03:21:17.269Z,531.60
2019-04-29T03:21:52.578Z,533.30
2019-04-29T03:22:27.876Z,517.10
2019-04-29T03:23:03.325Z,542.80
2019-04-29T03:23:38.617Z,542.90
2019-04-29T03:24:13.967Z,538.80
2019-04-29T03:24:49.410Z,550.30
2019-04-29T03:25:24.684Z,538.10
2019-04-29T03:25:59.986Z,533.70
2019-04-29T03:26:35.268Z,533.30
2019-04-29T03:27:10.774Z,529.30
2019-04-29T03:27:46.045Z,532.20
2019-04-29T03:28:21.473Z,536.90
2019-04-29T03:28:56.961Z,541.10
2019-04-29T03:29:32.533Z,539.20
2019-04-29T03:30:07.806Z,535.90
2019-04-29T03:30:43.114Z,545.40
2019-04-29T03:31:18.490Z,549.50
2019-04-29T03:31:53.837Z,547.40
2019-04-29T03:32:29.503Z,549.00
2019-04-29T03:33:04.701Z,552.10
2019-04-29T03:33:40.592Z,548.90
2019-04-29T03:34:16.113Z,550.40
2019-04-29T03:34:51.286Z,547.60
2019-04-29T03:35:26.306Z,554.40
2019-04-29T03:36:01.362Z,560.90
2019-04-29T03:36:36.674Z,554.00
2019-04-29T03:37:12.039Z,540.20
2019-04-29T03:37:47.651Z,542.80
2019-04-29T03:38:22.708Z,545.50
2019-04-29T03:38:58.017Z,544.20
2019-04-29T03:39:33.283Z,535.40
2019-04-29T03:40:08.798Z,543.30
2019-04-29T03:40:44.492Z,548.80
2019-04-29T03:41:19.795Z,548.80
2019-04-29T03:41:55.395Z,546.50
2019-04-29T03:42:30.586Z,544.20
2019-04-29T03:43:05.970Z,554.80
2019-04-29T03:43:41.286Z,558.20
2019-04-29T03:44:16.355Z,548.40
2019-04-29T03:44:51.479Z,540.80
2019-04-29T03:45:26.666Z,543.30
2019-04-29T03:46:01.959Z,544.70
2019-04-29T03:46:37.337Z,543.80
2019-04-29T03:47:12.853Z,531.00
2019-04-29T03:47:48.314Z,534.40
2019-04-29T03:48:23.636Z,529.10
2019-04-29T03:48:58.837Z,530.90
2019-04-29T03:49:34.343Z,535.70
2019-04-29T03:50:09.504Z,530.00
2019-04-29T03:50:45.113Z,533.90
2019-04-29T03:51:20.391Z,531.90
2019-04-29T03:51:56.143Z,531.40
2019-04-29T03:52:31.311Z,545.70
2019-04-29T03:53:06.919Z,537.90
2019-04-29T03:53:42.195Z,536.20
2019-04-29T03:54:17.399Z,533.80
2019-04-29T03:54:52.669Z,538.50
2019-04-29T03:55:38.930Z,535.10
2019-04-29T03:56:03.376Z,539.70
2019-04-29T03:56:39.010Z,537.30
2019-04-29T03:57:14.198Z,536.30
2019-04-29T03:57:49.610Z,542.70
2019-04-29T03:58:25.011Z,545.00
2019-04-29T03:59:00.620Z,529.80
2019-04-29T03:59:35.991Z,534.60
2019-04-29T04:00:11.412Z,545.70
2019-04-29T04:00:46.976Z,546.90
2019-04-29T04:01:22.407Z,536.50
2019-04-29T04:01:57.375Z,546.70
2019-04-29T04:02:32.805Z,532.40
2019-04-29T04:03:08.167Z,531.60
2019-04-29T04:03:43.726Z,536.40
2019-04-29T04:04:19.218Z,553.20
2019-04-29T04:04:55.142Z,540.20
2019-04-29T04:05:30.259Z,540.30
2019-04-29T04:06:05.350Z,536.10
2019-04-29T04:06:40.562Z,525.40
2019-04-29T04:07:15.758Z,529.00
2019-04-29T04:07:50.932Z,536.40
2019-04-29T04:08:26.248Z,531.40
2019-04-29T04:09:05.949Z,532.20
2019-04-29T04:09:37.038Z,532.40
2019-04-29T04:10:12.412Z,546.00
2019-04-29T04:10:47.530Z,562.40
2019-04-29T04:11:22.906Z,543.70
2019-04-29T04:11:58.176Z,531.20
2019-04-29T04:12:33.369Z,533.40
2019-04-29T04:13:08.764Z,544.60
2019-04-29T04:13:44.336Z,538.10
2019-04-29T04:14:19.534Z,535.70
2019-04-29T04:14:55.101Z,551.10
2019-04-29T04:15:30.500Z,531.50
2019-04-29T04:16:05.976Z,532.00
2019-04-29T04:16:41.180Z,534.00
2019-04-29T04:17:20.243Z,564.70
2019-04-29T04:17:51.873Z,540.50
2019-04-29T04:18:27.143Z,536.80
2019-04-29T04:19:02.557Z,531.90
2019-04-29T04:19:37.627Z,532.80
2019-04-29T04:20:12.831Z,536.80
2019-04-29T04:20:48.109Z,540.00
2019-04-29T04:21:24.132Z,546.60
2019-04-29T04:21:59.419Z,541.10
2019-04-29T04:22:34.848Z,545.40
2019-04-29T04:23:10.031Z,546.50
2019-04-29T04:23:45.360Z,561.40
2019-04-29T04:24:20.429Z,569.80
2019-04-29T04:24:55.641Z,537.90
2019-04-29T04:25:31.053Z,547.40
2019-04-29T04:26:06.639Z,559.50
2019-04-29T04:26:41.863Z,549.10
2019-04-29T04:27:17.324Z,545.50
2019-04-29T04:27:52.264Z,542.90
2019-04-29T04:28:27.651Z,545.60
2019-04-29T04:29:02.935Z,532.00
2019-04-29T04:29:38.431Z,539.20
2019-04-29T04:30:13.644Z,547.90
2019-04-29T04:30:49.076Z,544.40
2019-04-29T04:31:24.450Z,535.20
2019-04-29T04:31:59.673Z,542.30
2019-04-29T04:32:35.181Z,537.30
2019-04-29T04:33:10.585Z,539.00
2019-04-29T04:33:45.766Z,569.50
2019-04-29T04:34:21.295Z,537.40
2019-04-29T04:34:56.464Z,533.40
2019-04-29T04:35:31.794Z,547.20
2019-04-29T04:36:06.878Z,541.10
2019-04-29T04:36:42.589Z,535.20
2019-04-29T04:37:17.770Z,543.10
2019-04-29T04:37:53.364Z,552.20
2019-04-29T04:38:28.678Z,551.20
2019-04-29T04:39:03.865Z,551.70
2019-04-29T04:39:39.156Z,550.90
2019-04-29T04:40:14.649Z,563.70
2019-04-29T04:40:50.236Z,568.40
2019-04-29T04:41:25.556Z,565.90
2019-04-29T04:42:00.920Z,563.10
2019-04-29T04:42:36.444Z,567.30
2019-04-29T04:43:11.707Z,557.30
2019-04-29T04:43:47.033Z,564.40
2019-04-29T04:44:22.418Z,585.00
2019-04-29T04:44:57.608Z,577.80
2019-04-29T04:45:32.888Z,564.10
2019-04-29T04:46:08.217Z,544.60
2019-04-29T04:46:43.700Z,529.20
2019-04-29T04:47:18.914Z,549.00
2019-04-29T04:47:54.492Z,578.60
2019-04-29T04:48:29.591Z,574.50
2019-04-29T04:49:05.196Z,575.50
2019-04-29T04:49:40.404Z,574.00
2019-04-29T04:50:15.801Z,552.80
2019-04-29T04:50:50.917Z,562.10
2019-04-29T04:51:25.988Z,553.90
2019-04-29T04:52:01.424Z,551.50
2019-04-29T04:52:36.685Z,555.80
2019-04-29T04:53:11.996Z,557.20
2019-04-29T04:53:47.463Z,602.00
2019-04-29T04:54:22.910Z,596.30
2019-04-29T04:54:58.302Z,548.30
2019-04-29T04:55:33.507Z,546.50
2019-04-29T04:56:09.091Z,571.70
2019-04-29T04:56:44.189Z,601.90
2019-04-29T04:57:19.464Z,606.30
2019-04-29T04:57:54.876Z,589.10
2019-04-29T04:58:30.548Z,589.60
2019-04-29T04:59:05.839Z,587.70
2019-04-29T04:59:41.381Z,632.80
2019-04-29T05:00:19.821Z,621.60
2019-04-29T05:00:52.006Z,612.60
2019-04-29T05:01:27.520Z,640.50
2019-04-29T05:02:02.804Z,644.80
2019-04-29T05:02:38.320Z,661.30
2019-04-29T05:03:13.698Z,705.50
2019-04-29T05:03:48.893Z,712.00
2019-04-29T05:04:24.292Z,698.50
2019-04-29T05:04:59.719Z,710.30
2019-04-29T05:05:35.299Z,730.90
2019-04-29T05:06:10.494Z,711.00
2019-04-29T05:06:45.772Z,713.20
2019-04-29T05:07:21.368Z,715.30
2019-04-29T05:07:56.854Z,732.10
2019-04-29T05:08:32.166Z,769.10
2019-04-29T05:09:07.651Z,784.60
2019-04-29T05:09:43.284Z,787.00
2019-04-29T05:10:18.378Z,780.00
2019-04-29T05:10:53.669Z,753.50
2019-04-29T05:11:29.034Z,753.40
2019-04-29T05:12:04.147Z,784.90
2019-04-29T05:12:39.261Z,793.10
2019-04-29T05:13:27.338Z,761.90
2019-04-29T05:13:50.235Z,764.20
2019-04-29T05:14:25.457Z,756.80
2019-04-29T05:15:00.824Z,784.60
2019-04-29T05:15:36.374Z,755.10
2019-04-29T05:16:11.775Z,756.00
2019-04-29T05:16:47.089Z,757.70
2019-04-29T05:17:22.451Z,756.30
2019-04-29T05:17:57.867Z,757.20
2019-04-29T05:18:32.939Z,781.20
2019-04-29T05:19:08.161Z,793.40
2019-04-29T05:19:43.437Z,759.30
2019-04-29T05:20:18.856Z,741.80
2019-04-29T05:20:54.267Z,760.30
2019-04-29T05:21:29.890Z,761.10
2019-04-29T05:22:05.391Z,792.60
2019-04-29T05:22:41.099Z,790.10
2019-04-29T05:23:16.682Z,781.70
2019-04-29T05:23:52.311Z,753.80
2019-04-29T05:24:27.895Z,774.70
2019-04-29T05:25:03.221Z,759.50
2019-04-29T05:25:38.692Z,728.00
2019-04-29T05:26:14.126Z,729.10
2019-04-29T05:26:49.320Z,764.00
2019-04-29T05:27:24.645Z,780.00
2019-04-29T05:28:00.224Z,779.20
2019-04-29T05:28:35.778Z,774.00
2019-04-29T05:29:11.170Z,774.30
2019-04-29T05:29:46.651Z,767.90
2019-04-29T05:30:21.808Z,750.60
2019-04-29T05:30:57.274Z,773.20
2019-04-29T05:31:32.790Z,780.60
2019-04-29T05:32:08.414Z,757.90
2019-04-29T05:32:43.609Z,737.00
2019-04-29T05:33:18.831Z,761.20
2019-04-29T05:33:54.275Z,789.80
2019-04-29T05:34:29.788Z,777.50
2019-04-29T05:35:04.959Z,756.10
2019-04-29T05:35:40.504Z,775.70
2019-04-29T05:36:15.605Z,747.00
2019-04-29T05:36:50.877Z,752.00
2019-04-29T05:37:26.381Z,784.80
2019-04-29T05:38:01.610Z,758.50
2019-04-29T05:38:37.103Z,771.70
2019-04-29T05:39:12.524Z,775.80
2019-04-29T05:39:47.822Z,786.70
2019-04-29T05:40:23.131Z,760.70
2019-04-29T05:40:58.432Z,774.10
2019-04-29T05:41:34.828Z,803.50
2019-04-29T05:42:16.003Z,798.90
2019-04-29T05:42:48.320Z,803.20
2019-04-29T05:43:20.031Z,785.40
2019-04-29T05:43:55.248Z,816.10
2019-04-29T05:44:30.527Z,828.30
2019-04-29T05:45:05.731Z,827.70
2019-04-29T05:45:41.438Z,828.50
2019-04-29T05:46:17.346Z,837.70
2019-04-29T05:46:51.870Z,827.40
2019-04-29T05:47:27.248Z,819.00
2019-04-29T05:48:02.545Z,852.20
2019-04-29T05:48:37.970Z,850.70
2019-04-29T05:49:13.142Z,847.00
2019-04-29T05:49:48.358Z,851.70
2019-04-29T05:50:23.349Z,853.60
2019-04-29T05:50:58.575Z,852.60
2019-04-29T05:51:34.215Z,856.80
2019-04-29T05:52:09.625Z,864.20
2019-04-29T05:52:45.141Z,866.30
2019-04-29T05:53:20.566Z,874.30
2019-04-29T05:53:55.949Z,889.50
2019-04-29T05:54:31.602Z,865.00
2019-04-29T05:55:09.421Z,863.40
2019-04-29T05:55:41.780Z,866.60
2019-04-29T05:56:17.357Z,893.90
2019-04-29T05:56:52.702Z,895.30
2019-04-29T05:57:28.122Z,893.40
2019-04-29T05:58:03.953Z,895.50
2019-04-29T05:58:39.614Z,875.10
2019-04-29T05:59:14.299Z,894.90
2019-04-29T05:59:49.780Z,923.00
2019-04-29T06:00:25.011Z,912.10
2019-04-29T06:01:00.058Z,945.50
2019-04-29T06:01:35.560Z,946.50
2019-04-29T06:02:10.942Z,946.60
2019-04-29T06:02:46.453Z,949.30
2019-04-29T06:03:21.763Z,986.50
2019-04-29T06:03:57.370Z,980.00
2019-04-29T06:04:32.662Z,959.40
2019-04-29T06:05:08.008Z,963.20
2019-04-29T06:05:43.416Z,979.00
2019-04-29T06:06:18.759Z,1000.90
2019-04-29T06:06:54.007Z,1002.80
2019-04-29T06:07:29.413Z,1036.10
2019-04-29T06:08:04.896Z,1013.00
2019-04-29T06:08:40.693Z,1023.80
2019-04-29T06:09:16.670Z,1041.00
2019-04-29T06:09:51.363Z,1042.80
2019-04-29T06:10:26.660Z,1057.20
2019-04-29T06:11:01.964Z,1063.00
2019-04-29T06:11:37.462Z,1057.10
2019-04-29T06:12:12.694Z,1058.50
2019-04-29T06:12:48.031Z,1054.30
2019-04-29T06:13:23.330Z,1057.70
2019-04-29T06:13:58.640Z,1085.70
2019-04-29T06:14:34.178Z,1067.00
2019-04-29T06:15:09.575Z,1073.80
2019-04-29T06:15:45.096Z,1061.70
2019-04-29T06:16:21.050Z,1067.90
2019-04-29T06:16:57.505Z,1096.90
2019-04-29T06:17:31.056Z,1083.30
2019-04-29T06:18:06.369Z,1076.90
2019-04-29T06:18:41.786Z,1074.30
2019-04-29T06:19:17.343Z,1087.00
2019-04-29T06:19:52.753Z,1106.30
2019-04-29T06:20:28.279Z,1101.50
2019-04-29T06:21:09.211Z,1089.20
2019-04-29T06:21:39.207Z,1111.00
2019-04-29T06:22:14.596Z,1103.50
2019-04-29T06:22:49.916Z,1106.00
2019-04-29T06:23:25.102Z,1106.50
2019-04-29T06:24:04.481Z,1113.30
2019-04-29T06:24:36.853Z,1117.90
2019-04-29T06:25:11.294Z,1130.50
2019-04-29T06:25:46.712Z,1139.50
2019-04-29T06:26:22.002Z,1150.60
2019-04-29T06:26:57.119Z,1147.50
2019-04-29T06:27:33.367Z,1123.10
2019-04-29T06:28:07.556Z,1121.80
2019-04-29T06:28:43.077Z,1115.80
2019-04-29T06:29:18.344Z,1120.20
2019-04-29T06:29:53.776Z,1114.20
2019-04-29T06:30:29.152Z,1103.40
2019-04-29T06:31:04.996Z,1101.00
2019-04-29T06:31:40.470Z,1091.60
2019-04-29T06:32:15.886Z,1094.40
2019-04-29T06:32:52.235Z,1099.80
2019-04-29T06:33:29.142Z,1112.30
2019-04-29T06:34:05.180Z,1093.50
2019-04-29T06:34:40.166Z,1095.90
2019-04-29T06:35:14.156Z,1096.10
2019-04-29T06:35:49.399Z,1075.60
2019-04-29T06:36:24.864Z,1073.20
2019-04-29T06:36:59.967Z,1084.70
2019-04-29T06:37:35.687Z,1087.40
2019-04-29T06:38:10.906Z,1067.10
2019-04-29T06:38:46.315Z,1058.80
2019-04-29T06:39:21.956Z,1041.20
2019-04-29T06:39:57.545Z,1037.50
2019-04-29T06:40:35.402Z,1036.90
2019-04-29T06:41:09.742Z,1033.00
2019-04-29T06:41:45.196Z,1042.10
2019-04-29T06:42:19.537Z,1018.50
2019-04-29T06:42:55.217Z,1010.80
2019-04-29T06:43:30.684Z,1016.50
2019-04-29T06:44:06.720Z,1022.10
2019-04-29T06:44:40.202Z,1038.10
2019-04-29T06:45:15.728Z,1029.30
2019-04-29T06:45:51.157Z,1016.60
2019-04-29T06:46:26.569Z,1024.60
2019-04-29T06:47:01.870Z,1022.50
2019-04-29T06:47:37.275Z,1023.00
2019-04-29T06:48:12.755Z,1020.80
2019-04-29T06:48:48.265Z,1021.00
2019-04-29T06:49:23.765Z,1029.40
2019-04-29T06:49:58.983Z,1029.20
2019-04-29T06:50:34.323Z,1016.40
2019-04-29T06:51:09.687Z,1006.10
2019-04-29T06:51:45.074Z,1012.80
2019-04-29T06:52:20.407Z,1020.70
2019-04-29T06:52:55.796Z,1024.70
2019-04-29T06:53:31.331Z,1029.00
2019-04-29T06:54:06.727Z,996.60
2019-04-29T06:54:42.249Z,977.30
2019-04-29T06:55:17.523Z,964.40
2019-04-29T06:55:53.339Z,967.00
2019-04-29T06:56:28.768Z,978.90
2019-04-29T06:57:04.210Z,976.80
2019-04-29T06:57:39.886Z,968.70
2019-04-29T06:58:15.191Z,973.50
2019-04-29T06:58:50.587Z,964.30
2019-04-29T06:59:25.717Z,972.20
2019-04-29T07:00:01.004Z,994.60
2019-04-29T07:00:36.339Z,1009.00
2019-04-29T07:01:11.931Z,1008.50
2019-04-29T07:01:47.574Z,1038.60
2019-04-29T07:02:23.070Z,1045.70
2019-04-29T07:02:58.469Z,1040.10
2019-04-29T07:03:34.063Z,1040.60
2019-04-29T07:04:09.370Z,1008.90
2019-04-29T07:04:44.852Z,1004.40
2019-04-29T07:05:20.158Z,1002.90
2019-04-29T07:05:55.653Z,994.30
2019-04-29T07:06:30.891Z,999.80
2019-04-29T07:07:06.120Z,1002.40
2019-04-29T07:07:41.831Z,992.20
2019-04-29T07:08:17.029Z,988.10
2019-04-29T07:08:52.614Z,997.70
2019-04-29T07:09:28.678Z,1000.50
2019-04-29T07:10:04.290Z,998.90
2019-04-29T07:10:39.486Z,999.00
2019-04-29T07:11:14.961Z,992.40
2019-04-29T07:11:50.361Z,991.70
2019-04-29T07:12:25.670Z,986.10
2019-04-29T07:13:01.093Z,985.90
2019-04-29T07:13:36.236Z,990.20
2019-04-29T07:14:11.621Z,986.40
2019-04-29T07:14:46.948Z,1005.60
2019-04-29T07:15:22.266Z,1012.80
2019-04-29T07:15:57.505Z,1010.90
2019-04-29T07:16:33.004Z,1016.10
2019-04-29T07:17:08.321Z,1010.90
2019-04-29T07:17:43.833Z,1012.60
2019-04-29T07:18:19.255Z,1018.00
2019-04-29T07:18:54.635Z,1032.20
2019-04-29T07:19:30.038Z,1033.70